Buoy 43519

sailwx.info

Track history (hours):
 
Tides and Currents Weather Stations Pressure Air Temp Water Temp Dewpoint Dewpoint Depression Visibility Wind Speed Wind Dir Waves Ship Positions

Drifting buoy 43519

Last reported at 2015-May-24 09:00 UTC. Time now 2015-May-24 21:24 UTC.
Position N 29°08' W 116°36'.

Barometer 1017.0 mb
Water temperature 18.3 ° C

Date/timePositionNaut miles runAvg speedWind from/ knotsBaromVisibWave heightAir tempDewpointWater temp
2015-May-24 09:00N 29°08' W 116°36'0 0.0 1017.0 18.3
2015-May-24 08:00N 29°08' W 116°36'0 0.1 1017.5 18.4
2015-May-24 04:00N 29°09' W 116°36'7 0.4 1017.9 18.4
2015-May-23 12:00N 29°15' W 116°33'3 0.4 1018.7 18.3
2015-May-23 05:00N 29°17' W 116°34'1 0.2 1019.5 18.4
2015-May-22 22:00N 29°18' W 116°35'2 0.4 1018.5 18.7
2015-May-22 16:00N 29°19' W 116°33'5 0.7 1018.7 18.3
2015-May-22 09:00N 29°24' W 116°33'2 0.4 1017.2 18.3
2015-May-22 05:00N 29°25' W 116°34'1 0.1 1017.0 18.3
2015-May-21 20:00N 29°26' W 116°35'8 0.5 1016.7 18.4
2015-May-21 04:00N 29°35' W 116°35'0 0.1 1015.5 18.3
2015-May-21 02:00N 29°34' W 116°35'2 1.0 1014.9 18.3
2015-May-21 00:00N 29°34' W 116°38'2 0.6 1015.4 18.3
2015-May-20 21:00N 29°34' W 116°36'3 0.4 1016.2 18.3
2015-May-20 13:00N 29°36' W 116°33'2 0.8 1015.2 18.2
2015-May-20 10:00N 29°38' W 116°33'5 0.3 1014.7 18.3
2015-May-19 18:00N 29°43' W 116°34'4 0.6 1018.9 18.3
2015-May-19 11:00N 29°46' W 116°31'3 3.1 1017.5 18.3
2015-May-19 10:00N 29°49' W 116°30'1 0.1 1018.2 18.3
2015-May-19 04:00N 29°50' W 116°31'0 0.4 1018.0 18.4
2015-May-19 03:00N 29°50' W 116°31'1 0.4 1017.7 18.4
2015-May-19 00:00N 29°51' W 116°32'0 0.0 1017.7 18.5
2015-May-18 22:00N 29°51' W 116°32'1 0.5 1018.2 18.5
2015-May-18 20:00N 29°51' W 116°33'0 0.1 1018.9 18.5
2015-May-18 18:00N 29°51' W 116°33'0 0.5 1018.7 18.4
2015-May-18 17:00N 29°50' W 116°32'1 1.3 1018.4 18.4
2015-May-18 16:00N 29°51' W 116°31'2 0.7 1018.0 18.3
2015-May-18 13:00N 29°52' W 116°30'0 0.0 1016.7 18.3
2015-May-18 12:00N 29°52' W 116°30'3 1.5 1016.4 18.3
2015-May-18 10:00N 29°55' W 116°31'0 0.0 1016.4 18.4
2015-May-18 07:00N 29°55' W 116°31'0 0.0 1017.4 18.4
2015-May-18 05:00N 29°55' W 116°31'0 0.2 1017.5 18.4
2015-May-18 04:00N 29°55' W 116°31'1 0.4 1017.5 18.4
2015-May-18 01:00N 29°56' W 116°32'1 0.7 1017.0 18.5
2015-May-18 00:00N 29°57' W 116°33'0 0.0 1017.0 18.5
2015-May-17 23:00N 29°57' W 116°33'0 0.1 1017.2 18.6
2015-May-17 21:00N 29°57' W 116°32'1 1.2 1017.4 18.6
2015-May-17 20:00N 29°56' W 116°34'0 0.1 1018.0 18.5
2015-May-17 17:00N 29°56' W 116°33'0 0.0 1017.5 18.3
2015-May-17 16:00N 29°56' W 116°33'1 0.3 1017.7 18.3
2015-May-17 13:00N 29°56' W 116°32'4 0.7 1016.7 18.3
2015-May-17 08:00N 29°60' W 116°32'2 0.3 1016.2 18.3
2015-May-17 01:00N 30°02' W 116°34'2 0.8 1016.0 18.4
2015-May-16 23:00N 30°02' W 116°36'5 0.2 1016.5 18.5
2015-May-16 01:00N 30°06' W 116°39'6 0.7 1011.9 18.4
2015-May-15 16:00N 30°08' W 116°46'0 0.0 1012.5 18.3
2015-May-15 15:00N 30°08' W 116°46'1 0.4 1012.2 18.3
2015-May-15 13:00N 30°08' W 116°47'0 0.4 1011.7 18.3
2015-May-15 12:00N 30°08' W 116°48'1 0.4 1012.2 18.3
2015-May-15 09:00N 30°09' W 116°49'0 0.0 1013.2 18.4
2015-May-15 08:00N 30°09' W 116°49'1 0.3 1013.5 18.4
2015-May-15 05:00N 30°10' W 116°50'1 1.1 1014.5 18.5
2015-May-15 04:00N 30°11' W 116°50'5 0.5 1014.2 18.5
2015-May-14 18:00N 30°12' W 116°56'1 0.3 1016.4 18.4
2015-May-14 13:00N 30°12' W 116°57'1 0.4 1014.5 18.2
2015-May-14 11:00N 30°13' W 116°58'2 1.0 1014.4 18.2
2015-May-14 09:00N 30°15' W 116°59'   1014.0 18.3
Track history (hours):
 
Tides and Currents Weather Stations Pressure Air Temp Water Temp Dewpoint Dewpoint Depression Visibility Wind Speed Wind Dir Waves Ship Positions

Drifting buoy 43519

Last reported at 2015-May-24 09:00 UTC. Time now 2015-May-24 21:24 UTC.
Position N 29°08' W 116°36'.

Barometer 1017.0 mb
Water temperature 18.3 ° C

Date/timePositionNaut miles runAvg speedWind from/ knotsBaromVisibWave heightAir tempDewpointWater temp
2015-May-24 09:00N 29°08' W 116°36'0 0.0 1017.0 18.3
2015-May-24 08:00N 29°08' W 116°36'0 0.1 1017.5 18.4
2015-May-24 04:00N 29°09' W 116°36'7 0.4 1017.9 18.4
2015-May-23 12:00N 29°15' W 116°33'3 0.4 1018.7 18.3
2015-May-23 05:00N 29°17' W 116°34'1 0.2 1019.5 18.4
2015-May-22 22:00N 29°18' W 116°35'2 0.4 1018.5 18.7
2015-May-22 16:00N 29°19' W 116°33'5 0.7 1018.7 18.3
2015-May-22 09:00N 29°24' W 116°33'2 0.4 1017.2 18.3
2015-May-22 05:00N 29°25' W 116°34'1 0.1 1017.0 18.3
2015-May-21 20:00N 29°26' W 116°35'8 0.5 1016.7 18.4
2015-May-21 04:00N 29°35' W 116°35'0 0.1 1015.5 18.3
2015-May-21 02:00N 29°34' W 116°35'2 1.0 1014.9 18.3
2015-May-21 00:00N 29°34' W 116°38'2 0.6 1015.4 18.3
2015-May-20 21:00N 29°34' W 116°36'3 0.4 1016.2 18.3
2015-May-20 13:00N 29°36' W 116°33'2 0.8 1015.2 18.2
2015-May-20 10:00N 29°38' W 116°33'5 0.3 1014.7 18.3
2015-May-19 18:00N 29°43' W 116°34'4 0.6 1018.9 18.3
2015-May-19 11:00N 29°46' W 116°31'3 3.1 1017.5 18.3
2015-May-19 10:00N 29°49' W 116°30'1 0.1 1018.2 18.3
2015-May-19 04:00N 29°50' W 116°31'0 0.4 1018.0 18.4
2015-May-19 03:00N 29°50' W 116°31'1 0.4 1017.7 18.4
2015-May-19 00:00N 29°51' W 116°32'0 0.0 1017.7 18.5
2015-May-18 22:00N 29°51' W 116°32'1 0.5 1018.2 18.5
2015-May-18 20:00N 29°51' W 116°33'0 0.1 1018.9 18.5
2015-May-18 18:00N 29°51' W 116°33'0 0.5 1018.7 18.4
2015-May-18 17:00N 29°50' W 116°32'1 1.3 1018.4 18.4
2015-May-18 16:00N 29°51' W 116°31'2 0.7 1018.0 18.3
2015-May-18 13:00N 29°52' W 116°30'0 0.0 1016.7 18.3
2015-May-18 12:00N 29°52' W 116°30'3 1.5 1016.4 18.3
2015-May-18 10:00N 29°55' W 116°31'0 0.0 1016.4 18.4
2015-May-18 07:00N 29°55' W 116°31'0 0.0 1017.4 18.4
2015-May-18 05:00N 29°55' W 116°31'0 0.2 1017.5 18.4
2015-May-18 04:00N 29°55' W 116°31'1 0.4 1017.5 18.4
2015-May-18 01:00N 29°56' W 116°32'1 0.7 1017.0 18.5
2015-May-18 00:00N 29°57' W 116°33'0 0.0 1017.0 18.5
2015-May-17 23:00N 29°57' W 116°33'0 0.1 1017.2 18.6
2015-May-17 21:00N 29°57' W 116°32'1 1.2 1017.4 18.6
2015-May-17 20:00N 29°56' W 116°34'0 0.1 1018.0 18.5
2015-May-17 17:00N 29°56' W 116°33'0 0.0 1017.5 18.3
2015-May-17 16:00N 29°56' W 116°33'1 0.3 1017.7 18.3
2015-May-17 13:00N 29°56' W 116°32'4 0.7 1016.7 18.3
2015-May-17 08:00N 29°60' W 116°32'2 0.3 1016.2 18.3
2015-May-17 01:00N 30°02' W 116°34'2 0.8 1016.0 18.4
2015-May-16 23:00N 30°02' W 116°36'5 0.2 1016.5 18.5
2015-May-16 01:00N 30°06' W 116°39'6 0.7 1011.9 18.4
2015-May-15 16:00N 30°08' W 116°46'0 0.0 1012.5 18.3
2015-May-15 15:00N 30°08' W 116°46'1 0.4 1012.2 18.3
2015-May-15 13:00N 30°08' W 116°47'0 0.4 1011.7 18.3
2015-May-15 12:00N 30°08' W 116°48'1 0.4 1012.2 18.3
2015-May-15 09:00N 30°09' W 116°49'0 0.0 1013.2 18.4
2015-May-15 08:00N 30°09' W 116°49'1 0.3 1013.5 18.4
2015-May-15 05:00N 30°10' W 116°50'1 1.1 1014.5 18.5
2015-May-15 04:00N 30°11' W 116°50'5 0.5 1014.2 18.5
2015-May-14 18:00N 30°12' W 116°56'1 0.3 1016.4 18.4
2015-May-14 13:00N 30°12' W 116°57'1 0.4 1014.5 18.2
2015-May-14 11:00N 30°13' W 116°58'2 1.0 1014.4 18.2
2015-May-14 09:00N 30°15' W 116°59'   1014.0 18.3

Dump ship's entire track history